createdAt,value
2022-09-11T00:01:00.819Z,82.28
2022-09-11T00:03:31.417Z,83.77
2022-09-11T00:06:03.565Z,85.11
2022-09-11T00:08:32.099Z,85.17
2022-09-11T00:11:05.350Z,84.24
2022-09-11T00:13:33.076Z,85.00
2022-09-11T00:16:01.684Z,84.72
2022-09-11T00:18:30.995Z,83.12
2022-09-11T00:20:59.452Z,81.67
2022-09-11T00:23:28.476Z,81.46
2022-09-11T00:25:56.302Z,81.14
2022-09-11T00:28:26.374Z,81.24
2022-09-11T00:30:59.669Z,81.82
2022-09-11T00:33:28.008Z,82.55
2022-09-11T00:35:58.831Z,81.80
2022-09-11T00:38:27.120Z,80.77
2022-09-11T00:40:57.849Z,80.80
2022-09-11T00:43:26.985Z,80.42
2022-09-11T00:45:59.771Z,80.79
2022-09-11T00:48:31.597Z,80.79
2022-09-11T00:51:03.846Z,81.36
2022-09-11T00:53:37.115Z,83.79
2022-09-11T00:56:07.099Z,84.83
2022-09-11T00:58:39.325Z,85.13
2022-09-11T01:01:09.113Z,84.94
2022-09-11T01:03:37.039Z,85.38
2022-09-11T01:06:07.760Z,86.14
2022-09-11T01:08:38.402Z,85.88
2022-09-11T01:11:28.079Z,85.14
2022-09-11T01:14:04.699Z,85.30
2022-09-11T01:16:39.603Z,85.33
2022-09-11T01:19:20.175Z,85.50
2022-09-11T01:22:05.725Z,84.87
2022-09-11T01:24:56.410Z,86.31
2022-09-11T01:27:41.944Z,86.06
2022-09-11T01:30:12.392Z,85.61
2022-09-11T01:32:51.537Z,83.29
2022-09-11T01:35:24.951Z,84.01
2022-09-11T01:37:58.241Z,84.21
2022-09-11T01:40:32.988Z,82.99
2022-09-11T01:43:07.122Z,82.97
2022-09-11T01:45:37.244Z,82.24
2022-09-11T01:48:09.029Z,83.13
2022-09-11T01:50:41.372Z,82.23
2022-09-11T01:53:13.018Z,81.63
2022-09-11T01:55:47.104Z,81.77
2022-09-11T01:58:23.801Z,81.33
2022-09-11T02:00:55.965Z,82.12
2022-09-11T02:03:28.038Z,82.08
2022-09-11T02:05:59.870Z,81.57
2022-09-11T02:08:31.430Z,82.39
2022-09-11T02:11:04.381Z,83.07
2022-09-11T02:13:38.418Z,84.54
2022-09-11T02:16:22.849Z,85.72
2022-09-11T02:19:01.049Z,85.44
2022-09-11T02:21:29.209Z,85.80
2022-09-11T02:23:57.322Z,84.18
2022-09-11T02:26:27.392Z,83.05
2022-09-11T02:28:56.808Z,82.91
2022-09-11T02:31:25.486Z,82.83
2022-09-11T02:33:53.339Z,85.31
2022-09-11T02:36:42.182Z,85.85
2022-09-11T02:39:24.933Z,86.38
2022-09-11T02:42:08.876Z,86.19
2022-09-11T02:44:46.293Z,85.87
2022-09-11T02:47:26.249Z,86.74
2022-09-11T02:50:06.320Z,86.32
2022-09-11T02:52:48.456Z,85.65
2022-09-11T02:55:23.716Z,85.98
2022-09-11T02:57:59.231Z,87.93
2022-09-11T03:00:30.122Z,88.25
2022-09-11T03:02:59.247Z,86.14
2022-09-11T03:05:28.461Z,84.87
2022-09-11T03:07:57.728Z,84.35
2022-09-11T03:10:25.723Z,83.76
2022-09-11T03:12:54.710Z,83.28
2022-09-11T03:15:23.596Z,85.18
2022-09-11T03:17:54.099Z,86.00
2022-09-11T03:20:22.029Z,85.45
2022-09-11T03:22:50.151Z,85.42
2022-09-11T03:25:17.968Z,86.05
2022-09-11T03:27:47.722Z,86.67
2022-09-11T03:30:15.690Z,87.32
2022-09-11T03:32:43.528Z,85.66
2022-09-11T03:35:15.144Z,86.06
2022-09-11T03:37:43.247Z,84.64
2022-09-11T03:40:11.682Z,83.26
2022-09-11T03:42:39.737Z,83.31
2022-09-11T03:45:08.285Z,85.57
2022-09-11T03:47:37.287Z,86.36
2022-09-11T03:50:06.100Z,87.90
2022-09-11T03:52:36.165Z,86.59
2022-09-11T03:55:04.450Z,84.83
2022-09-11T03:57:34.100Z,84.39
2022-09-11T04:00:03.171Z,85.32
2022-09-11T04:02:47.983Z,85.31
2022-09-11T04:05:26.104Z,87.90
2022-09-11T04:07:56.297Z,86.94
2022-09-11T04:10:25.838Z,86.66
2022-09-11T04:12:54.079Z,87.49
2022-09-11T04:15:23.177Z,85.58
2022-09-11T04:17:50.975Z,85.90
2022-09-11T04:20:19.175Z,86.42
2022-09-11T04:22:47.743Z,86.74
2022-09-11T04:25:17.136Z,86.92
2022-09-11T04:27:44.939Z,85.80
2022-09-11T04:30:16.803Z,86.78
2022-09-11T04:32:46.260Z,86.61
2022-09-11T04:35:14.596Z,87.45
2022-09-11T04:37:50.644Z,88.48
2022-09-11T04:40:19.940Z,89.20
2022-09-11T04:42:48.297Z,89.64
2022-09-11T04:45:16.294Z,90.15
2022-09-11T04:47:44.260Z,90.87
2022-09-11T04:50:14.102Z,89.53
2022-09-11T04:52:46.167Z,89.38
2022-09-11T04:55:14.049Z,89.90
2022-09-11T04:57:43.260Z,89.92
2022-09-11T05:00:12.629Z,89.28
2022-09-11T05:02:40.598Z,88.90
2022-09-11T05:05:10.100Z,88.79
2022-09-11T05:07:38.342Z,88.98
2022-09-11T05:10:08.058Z,88.96
2022-09-11T05:12:35.895Z,87.97
2022-09-11T05:15:05.771Z,88.59
2022-09-11T05:17:34.280Z,86.72
2022-09-11T05:20:02.677Z,86.02
2022-09-11T05:22:31.900Z,87.88
2022-09-11T05:25:02.004Z,87.52
2022-09-11T05:27:29.949Z,87.89
2022-09-11T05:29:57.808Z,89.06
2022-09-11T05:32:27.023Z,89.33
2022-09-11T05:34:56.032Z,90.46
2022-09-11T05:37:24.677Z,89.47
2022-09-11T05:39:53.895Z,89.78
2022-09-11T05:42:21.814Z,88.95
2022-09-11T05:44:53.293Z,89.00
2022-09-11T05:47:22.033Z,88.39
2022-09-11T05:49:54.117Z,90.29
2022-09-11T05:52:22.017Z,89.41
2022-09-11T05:54:53.629Z,88.92
2022-09-11T05:57:21.572Z,88.87
2022-09-11T05:59:49.679Z,89.78
2022-09-11T06:02:19.591Z,87.97
2022-09-11T06:04:56.475Z,86.27
2022-09-11T06:07:26.789Z,86.77
2022-09-11T06:09:56.310Z,86.69
2022-09-11T06:12:27.310Z,87.72
2022-09-11T06:14:55.956Z,85.21
2022-09-11T06:17:24.290Z,87.63
2022-09-11T06:19:52.426Z,88.51
2022-09-11T06:22:23.152Z,87.87
2022-09-11T06:24:53.738Z,87.61
2022-09-11T06:27:21.742Z,86.93
2022-09-11T06:29:51.264Z,86.87
2022-09-11T06:32:21.425Z,87.26
2022-09-11T06:34:49.462Z,86.40
2022-09-11T06:37:17.450Z,87.08
2022-09-11T06:39:46.719Z,87.62
2022-09-11T06:42:21.639Z,87.08
2022-09-11T06:44:52.023Z,86.54
2022-09-11T06:47:21.603Z,84.64
2022-09-11T06:49:49.544Z,86.00
2022-09-11T06:52:34.518Z,83.24
2022-09-11T06:55:13.458Z,83.79
2022-09-11T06:57:46.506Z,83.27
2022-09-11T07:00:18.248Z,83.21
2022-09-11T07:02:46.441Z,81.48
2022-09-11T07:05:15.795Z,81.96
2022-09-11T07:07:48.570Z,82.39
2022-09-11T07:10:18.971Z,83.37
2022-09-11T07:12:54.154Z,80.26
2022-09-11T07:15:22.421Z,81.10
2022-09-11T07:17:50.364Z,80.93
2022-09-11T07:20:18.686Z,81.02
2022-09-11T07:22:46.732Z,80.79
2022-09-11T07:25:18.260Z,80.16
2022-09-11T07:27:47.696Z,82.11
2022-09-11T07:30:16.464Z,81.75
2022-09-11T07:32:46.323Z,81.14
2022-09-11T07:35:17.551Z,82.46
2022-09-11T07:37:50.213Z,81.39
2022-09-11T07:40:19.971Z,80.97
2022-09-11T07:42:47.783Z,80.71
2022-09-11T07:45:17.919Z,79.96
2022-09-11T07:47:48.804Z,77.53
2022-09-11T07:50:18.050Z,75.92
2022-09-11T07:52:46.829Z,78.20
2022-09-11T07:55:15.341Z,77.70
2022-09-11T07:57:46.623Z,76.81
2022-09-11T08:00:16.741Z,75.08
2022-09-11T08:02:58.895Z,77.37
2022-09-11T08:05:33.652Z,77.83
2022-09-11T08:08:01.625Z,76.75
2022-09-11T08:10:30.754Z,76.94
2022-09-11T08:13:01.919Z,78.06
2022-09-11T08:15:33.706Z,78.22
2022-09-11T08:18:03.618Z,78.09
2022-09-11T08:20:32.545Z,78.17
2022-09-11T08:23:00.540Z,75.88
2022-09-11T08:25:28.655Z,77.77
2022-09-11T08:27:58.145Z,76.25
2022-09-11T08:30:28.999Z,76.91
2022-09-11T08:32:57.551Z,76.95
2022-09-11T08:35:26.809Z,77.11
2022-09-11T08:37:55.531Z,76.57
2022-09-11T08:40:24.237Z,74.80
2022-09-11T08:42:53.455Z,77.20
2022-09-11T08:45:26.441Z,77.49
2022-09-11T08:47:58.416Z,76.45
2022-09-11T08:50:28.799Z,74.97
2022-09-11T08:53:02.967Z,75.98
2022-09-11T08:55:36.643Z,75.11
2022-09-11T08:58:15.521Z,76.87
2022-09-11T09:00:52.162Z,75.33
2022-09-11T09:03:43.289Z,74.62
2022-09-11T09:06:45.117Z,74.00
2022-09-11T09:09:22.066Z,69.64
2022-09-11T09:11:57.559Z,73.72
2022-09-11T09:14:49.529Z,73.53
2022-09-11T09:17:22.794Z,71.55
2022-09-11T09:20:01.519Z,75.57
2022-09-11T09:22:41.067Z,74.34
2022-09-11T09:25:14.068Z,75.03
2022-09-11T09:27:49.291Z,75.89
2022-09-11T09:30:21.973Z,75.22
2022-09-11T09:32:55.297Z,75.20
2022-09-11T09:35:31.654Z,74.97
2022-09-11T09:38:00.536Z,72.19
2022-09-11T09:40:31.370Z,73.59
2022-09-11T09:43:24.046Z,72.96
2022-09-11T09:46:05.255Z,72.03
2022-09-11T09:48:38.396Z,69.90
2022-09-11T09:51:13.317Z,71.51
2022-09-11T09:53:46.344Z,68.88
2022-09-11T09:56:17.279Z,67.62
2022-09-11T09:58:51.892Z,65.75
2022-09-11T10:01:46.606Z,66.09
2022-09-11T10:04:18.206Z,71.60
2022-09-11T10:06:49.480Z,72.17
2022-09-11T10:09:26.876Z,73.56
2022-09-11T10:12:02.963Z,73.62
2022-09-11T10:14:51.115Z,73.45
2022-09-11T10:17:33.358Z,70.37
2022-09-11T10:20:15.195Z,70.41
2022-09-11T10:22:44.512Z,68.30
2022-09-11T10:25:14.219Z,67.52
2022-09-11T10:27:50.324Z,68.05
2022-09-11T10:30:36.503Z,69.54
2022-09-11T10:33:07.890Z,69.66
2022-09-11T10:35:37.776Z,69.46
2022-09-11T10:38:27.548Z,67.89
2022-09-11T10:40:59.463Z,67.85
2022-09-11T10:43:34.202Z,65.72
2022-09-11T10:46:20.921Z,67.29
2022-09-11T10:48:55.283Z,68.67
2022-09-11T10:51:25.104Z,67.76
2022-09-11T10:54:08.141Z,67.68
2022-09-11T10:56:44.171Z,68.46
2022-09-11T10:59:19.331Z,66.82
2022-09-11T11:01:47.398Z,66.54
2022-09-11T11:04:16.068Z,67.39
2022-09-11T11:06:58.968Z,68.02
2022-09-11T11:09:43.311Z,68.02
2022-09-11T11:12:32.050Z,71.78
2022-09-11T11:15:40.184Z,73.20
2022-09-11T11:18:42.955Z,73.45
2022-09-11T11:21:19.054Z,75.11
2022-09-11T11:24:18.007Z,75.70
2022-09-11T11:27:05.316Z,73.87
2022-09-11T11:30:00.559Z,71.32
2022-09-11T11:32:50.970Z,68.88
2022-09-11T11:35:28.572Z,69.32
2022-09-11T11:38:03.627Z,68.41
2022-09-11T11:40:36.917Z,68.33
2022-09-11T11:43:08.686Z,67.91
2022-09-11T11:45:40.380Z,66.26
2022-09-11T11:48:15.696Z,64.61
2022-09-11T11:50:47.360Z,64.43
2022-09-11T11:53:24.195Z,64.93
2022-09-11T11:56:01.460Z,64.10
2022-09-11T11:58:42.980Z,63.98
2022-09-11T12:01:18.201Z,62.83
2022-09-11T12:03:51.995Z,62.61
2022-09-11T12:06:20.418Z,62.39
2022-09-11T12:08:49.038Z,61.02
2022-09-11T12:11:23.612Z,63.44
2022-09-11T12:13:55.350Z,62.51
2022-09-11T12:16:28.994Z,62.31
2022-09-11T12:19:07.658Z,62.37
2022-09-11T12:21:39.392Z,63.13
2022-09-11T12:24:17.560Z,62.75
2022-09-11T12:26:45.797Z,63.57
2022-09-11T12:29:50.556Z,64.01
2022-09-11T12:32:45.047Z,64.04
2022-09-11T12:35:20.788Z,64.49
2022-09-11T12:37:55.727Z,64.29
2022-09-11T12:40:33.173Z,64.61
2022-09-11T12:43:18.709Z,64.52
2022-09-11T12:45:48.448Z,61.48
2022-09-11T12:48:21.691Z,61.30
2022-09-11T12:50:51.740Z,61.74
2022-09-11T12:53:24.275Z,61.40
2022-09-11T12:55:59.850Z,62.01
2022-09-11T12:58:34.011Z,62.47
2022-09-11T13:01:06.167Z,62.01
2022-09-11T13:03:37.687Z,62.99
2022-09-11T13:06:09.952Z,62.27
2022-09-11T13:08:41.740Z,61.93
2022-09-11T13:11:39.732Z,63.79
2022-09-11T13:14:49.389Z,64.33
2022-09-11T13:17:25.811Z,64.03
2022-09-11T13:20:10.543Z,63.40
2022-09-11T13:22:39.334Z,64.30
2022-09-11T13:25:14.660Z,64.32
2022-09-11T13:27:45.204Z,64.99
2022-09-11T13:30:15.701Z,65.36
2022-09-11T13:32:45.345Z,65.78
2022-09-11T13:35:17.947Z,67.34
2022-09-11T13:37:54.244Z,67.46
2022-09-11T13:40:25.557Z,65.98
2022-09-11T13:42:53.915Z,66.58
2022-09-11T13:45:22.359Z,68.11
2022-09-11T13:47:50.396Z,68.17
2022-09-11T13:50:20.890Z,66.59
2022-09-11T13:52:50.291Z,65.97
2022-09-11T13:55:20.719Z,63.43
2022-09-11T13:57:54.673Z,64.76
2022-09-11T14:00:48.247Z,63.56
2022-09-11T14:03:24.422Z,61.73
2022-09-11T14:05:55.647Z,61.91
2022-09-11T14:08:29.493Z,60.95
2022-09-11T14:11:01.141Z,59.80
2022-09-11T14:13:34.263Z,62.35
2022-09-11T14:16:06.501Z,60.78
2022-09-11T14:18:41.853Z,60.85
2022-09-11T14:21:17.058Z,60.50
2022-09-11T14:23:48.512Z,61.08
2022-09-11T14:26:18.506Z,61.07
2022-09-11T14:29:05.162Z,61.96
2022-09-11T14:31:36.310Z,60.51
2022-09-11T14:34:12.294Z,61.64
2022-09-11T14:36:45.131Z,61.48
2022-09-11T14:39:16.671Z,62.15
2022-09-11T14:41:45.308Z,62.23
2022-09-11T14:44:15.642Z,61.56
2022-09-11T14:46:43.643Z,63.22
2022-09-11T14:49:12.820Z,63.23
2022-09-11T14:51:43.148Z,63.95
2022-09-11T14:54:15.950Z,63.99
2022-09-11T14:56:44.766Z,64.22
2022-09-11T14:59:14.004Z,63.94
2022-09-11T15:01:42.215Z,64.34
2022-09-11T15:04:14.132Z,64.32
2022-09-11T15:06:43.381Z,64.88
2022-09-11T15:09:11.177Z,63.89
2022-09-11T15:11:40.083Z,63.70
2022-09-11T15:14:32.245Z,65.48
2022-09-11T15:16:58.153Z,65.52
2022-09-11T15:19:26.199Z,66.33
2022-09-11T15:21:56.592Z,66.61
2022-09-11T15:24:25.467Z,67.67
2022-09-11T15:26:53.843Z,67.59
2022-09-11T15:29:22.593Z,68.00
2022-09-11T15:31:50.540Z,67.78
2022-09-11T15:34:18.961Z,67.31
2022-09-11T15:36:50.796Z,69.67
2022-09-11T15:39:24.284Z,69.03
2022-09-11T15:41:52.102Z,68.91
2022-09-11T15:44:21.882Z,69.85
2022-09-11T15:46:50.148Z,69.88
2022-09-11T15:49:18.268Z,69.38
2022-09-11T15:51:46.107Z,67.98
2022-09-11T15:54:15.623Z,65.61
2022-09-11T15:56:46.775Z,65.62
2022-09-11T15:59:15.969Z,65.36
2022-09-11T16:01:45.442Z,66.09
2022-09-11T16:04:15.418Z,66.50
2022-09-11T16:06:45.855Z,66.38
2022-09-11T16:09:16.099Z,65.85
2022-09-11T16:11:47.825Z,65.50
2022-09-11T16:14:19.010Z,68.20
2022-09-11T16:16:48.000Z,67.54
2022-09-11T16:19:16.474Z,67.49
2022-09-11T16:21:44.550Z,68.05
2022-09-11T16:24:14.686Z,67.28
2022-09-11T16:26:44.043Z,67.65
2022-09-11T16:29:15.588Z,68.67
2022-09-11T16:31:43.847Z,68.56
2022-09-11T16:34:12.250Z,68.92
2022-09-11T16:36:41.800Z,68.97
2022-09-11T16:39:11.769Z,68.21
2022-09-11T16:41:40.292Z,66.81
2022-09-11T16:44:11.474Z,67.33
2022-09-11T16:46:42.261Z,68.13
2022-09-11T16:49:10.642Z,68.33
2022-09-11T16:51:38.452Z,67.49
2022-09-11T16:54:06.330Z,67.96
2022-09-11T16:56:34.331Z,66.21
2022-09-11T16:59:02.206Z,66.88
2022-09-11T17:01:29.993Z,66.63
2022-09-11T17:03:59.436Z,68.85
2022-09-11T17:06:29.907Z,68.14
2022-09-11T17:09:00.190Z,67.74
2022-09-11T17:11:30.989Z,68.92
2022-09-11T17:14:01.016Z,68.27
2022-09-11T17:16:32.212Z,67.20
2022-09-11T17:19:03.253Z,66.54
2022-09-11T17:21:35.798Z,66.50
2022-09-11T17:24:05.390Z,65.42
2022-09-11T17:26:34.166Z,65.73
2022-09-11T17:29:03.514Z,65.79
2022-09-11T17:31:31.973Z,66.43
2022-09-11T17:34:01.241Z,66.38
2022-09-11T17:36:29.237Z,66.16
2022-09-11T17:38:59.430Z,66.42
2022-09-11T17:41:27.696Z,68.47
2022-09-11T17:43:55.528Z,67.56
2022-09-11T17:46:24.829Z,67.28
2022-09-11T17:48:52.823Z,68.33
2022-09-11T17:51:25.082Z,68.86
2022-09-11T17:53:55.417Z,68.56
2022-09-11T17:56:25.874Z,68.57
2022-09-11T17:58:55.190Z,68.00
2022-09-11T18:01:24.115Z,68.40
2022-09-11T18:03:53.009Z,70.28
2022-09-11T18:06:39.827Z,68.99
2022-09-11T18:09:12.047Z,69.79
2022-09-11T18:11:40.804Z,69.59
2022-09-11T18:14:09.309Z,69.85
2022-09-11T18:16:37.659Z,69.68
2022-09-11T18:19:05.813Z,70.61
2022-09-11T18:21:38.219Z,70.72
2022-09-11T18:24:09.856Z,70.08
2022-09-11T18:26:40.158Z,70.69
2022-09-11T18:29:10.451Z,71.41
2022-09-11T18:31:40.974Z,71.31
2022-09-11T18:34:11.921Z,71.62
2022-09-11T18:36:42.419Z,73.05
2022-09-11T18:39:12.304Z,73.56
2022-09-11T18:41:40.500Z,74.30
2022-09-11T18:44:16.149Z,74.16
2022-09-11T18:46:47.191Z,75.81
2022-09-11T18:49:16.221Z,75.41
2022-09-11T18:51:45.561Z,74.74
2022-09-11T18:54:15.600Z,74.68
2022-09-11T18:56:43.967Z,74.83
2022-09-11T18:59:12.506Z,74.85
2022-09-11T19:01:41.345Z,74.73
2022-09-11T19:04:11.144Z,75.04
2022-09-11T19:06:39.711Z,75.54
2022-09-11T19:09:12.622Z,76.66
2022-09-11T19:11:41.189Z,75.99
2022-09-11T19:14:11.627Z,75.63
2022-09-11T19:16:40.246Z,76.06
2022-09-11T19:19:08.953Z,76.30
2022-09-11T19:21:38.019Z,76.17
2022-09-11T19:24:06.863Z,76.58
2022-09-11T19:26:38.871Z,76.89
2022-09-11T19:29:08.651Z,77.32
2022-09-11T19:31:39.229Z,77.42
2022-09-11T19:34:08.789Z,77.18
2022-09-11T19:36:37.395Z,77.00
2022-09-11T19:39:06.409Z,77.30
2022-09-11T19:41:38.651Z,77.63
2022-09-11T19:44:12.077Z,77.75
2022-09-11T19:46:40.960Z,77.69
2022-09-11T19:49:09.770Z,77.48
2022-09-11T19:51:39.153Z,77.65
2022-09-11T19:54:08.065Z,77.21
2022-09-11T19:56:38.614Z,78.75
2022-09-11T19:59:07.171Z,78.80
2022-09-11T20:01:35.156Z,78.76
2022-09-11T20:04:03.469Z,78.95
2022-09-11T20:06:33.717Z,79.24
2022-09-11T20:09:29.386Z,79.42
2022-09-11T20:11:51.649Z,79.73
2022-09-11T20:14:19.720Z,79.17
2022-09-11T20:16:48.780Z,79.91
2022-09-11T20:19:20.709Z,80.21
2022-09-11T20:21:49.195Z,80.08
2022-09-11T20:24:17.163Z,79.92
2022-09-11T20:26:45.074Z,79.75
2022-09-11T20:29:16.615Z,79.91
2022-09-11T20:31:48.995Z,80.00
2022-09-11T20:34:17.400Z,81.18
2022-09-11T20:36:45.602Z,81.38
2022-09-11T20:39:15.096Z,81.44
2022-09-11T20:41:43.296Z,81.02
2022-09-11T20:44:11.193Z,81.22
2022-09-11T20:46:40.586Z,80.70
2022-09-11T20:49:08.573Z,81.84
2022-09-11T20:51:36.444Z,81.21
2022-09-11T20:54:04.653Z,82.16
2022-09-11T20:56:32.876Z,80.33
2022-09-11T20:59:00.966Z,81.31
2022-09-11T21:01:32.390Z,80.79
2022-09-11T21:04:04.339Z,81.32
2022-09-11T21:06:34.063Z,81.15
2022-09-11T21:09:05.562Z,80.50
2022-09-11T21:11:33.624Z,80.05
2022-09-11T21:14:01.967Z,79.77
2022-09-11T21:16:29.870Z,79.22
2022-09-11T21:18:59.677Z,78.88
2022-09-11T21:21:30.184Z,78.77
2022-09-11T21:24:01.186Z,79.27
2022-09-11T21:26:30.199Z,78.90
2022-09-11T21:28:58.924Z,79.42
2022-09-11T21:31:27.621Z,79.85
2022-09-11T21:33:55.474Z,79.53
2022-09-11T21:36:23.859Z,78.79
2022-09-11T21:38:53.379Z,78.76
2022-09-11T21:41:21.422Z,78.67
2022-09-11T21:43:49.341Z,77.74
2022-09-11T21:46:17.242Z,77.55
2022-09-11T21:48:45.165Z,77.35
2022-09-11T21:51:15.554Z,77.25
2022-09-11T21:53:45.322Z,77.99
2022-09-11T21:56:19.924Z,77.75
2022-09-11T21:58:48.282Z,77.92
2022-09-11T22:01:16.182Z,77.42
2022-09-11T22:03:44.601Z,77.59
2022-09-11T22:06:13.452Z,78.80
2022-09-11T22:08:43.150Z,78.25
2022-09-11T22:11:12.017Z,77.85
2022-09-11T22:13:41.611Z,77.99
2022-09-11T22:16:11.406Z,78.57
2022-09-11T22:18:39.990Z,78.42
2022-09-11T22:21:08.748Z,78.26
2022-09-11T22:23:36.885Z,79.03
2022-09-11T22:26:07.437Z,79.32
2022-09-11T22:28:35.666Z,78.24
2022-09-11T22:31:08.958Z,79.19
2022-09-11T22:33:37.711Z,77.25
2022-09-11T22:36:10.480Z,78.33
2022-09-11T22:38:38.336Z,78.49
2022-09-11T22:41:07.294Z,78.68
2022-09-11T22:43:35.200Z,77.91
2022-09-11T22:46:03.213Z,77.51
2022-09-11T22:48:32.816Z,77.17
2022-09-11T22:51:00.887Z,76.88
2022-09-11T22:53:29.484Z,77.22
2022-09-11T22:55:57.693Z,77.15
2022-09-11T22:58:25.644Z,76.58
2022-09-11T23:00:55.837Z,75.71
2022-09-11T23:03:24.134Z,76.12
2022-09-11T23:06:15.340Z,76.12
2022-09-11T23:08:45.623Z,78.04
2022-09-11T23:11:15.214Z,77.20
2022-09-11T23:13:44.053Z,76.45
2022-09-11T23:16:13.776Z,77.62
2022-09-11T23:18:42.026Z,77.90
2022-09-11T23:21:12.269Z,77.78
2022-09-11T23:23:42.896Z,76.42
2022-09-11T23:26:11.062Z,76.25
2022-09-11T23:28:39.756Z,77.61
2022-09-11T23:31:13.404Z,77.64
2022-09-11T23:33:41.862Z,78.49
2022-09-11T23:36:13.586Z,79.36
2022-09-11T23:38:41.898Z,78.87
2022-09-11T23:41:09.811Z,78.43
2022-09-11T23:43:37.661Z,78.86
2022-09-11T23:46:05.630Z,78.38
2022-09-11T23:48:33.529Z,77.69
2022-09-11T23:51:01.982Z,77.55
2022-09-11T23:53:31.560Z,78.58
2022-09-11T23:55:59.692Z,78.75
2022-09-11T23:58:27.830Z,78.61
